South Lincoln, Vermont
Current Conditions -  °F | °C
As of 4:15 AM on Sunday 21 Dec 2014 (Local Time) from K6B0 Reporting Station
Overcast Overcast  
Wind Chill: 19°   Ceiling: 600
Heat Index: 19°   Visibility: 10mi
Dew Point: 19°   Wind: 0mph
Humidity: 100%   Direction: NA
Pressure: 30.3"   Gusts: NA
Location:  44.1404°N, 73.0493°W
Report Text: K6B0 210915Z AUTO 00000KT 10SM BKN006 OVC035 M07/M07 A3030 RMK AO2 T10751075
Loading
Personal Weather Stations






























Interactive Weather Map New forecast layout! Learn more

10-Day Weather Forecast

Advertisements
Track Severe Weather on mobile